sensor_id;sensor_type;location;lat;lon;timestamp;temperature;humidity
56771;DHT22;42641;59.794;17.616;2022-10-15T00:00:35;12.10;99.90
56771;DHT22;42641;59.794;17.616;2022-10-15T00:03:01;12.00;99.90
56771;DHT22;42641;59.794;17.616;2022-10-15T00:05:27;12.00;99.90
56771;DHT22;42641;59.794;17.616;2022-10-15T00:07:54;12.00;99.90
56771;DHT22;42641;59.794;17.616;2022-10-15T00:10:21;12.00;99.90
56771;DHT22;42641;59.794;17.616;2022-10-15T00:12:47;12.00;99.90
56771;DHT22;42641;59.794;17.616;2022-10-15T00:15:13;12.00;99.90
56771;DHT22;42641;59.794;17.616;2022-10-15T00:17:40;12.00;99.90
56771;DHT22;42641;59.794;17.616;2022-10-15T00:20:09;11.90;99.90
56771;DHT22;42641;59.794;17.616;2022-10-15T00:22:36;11.90;99.90
56771;DHT22;42641;59.794;17.616;2022-10-15T00:25:03;11.90;99.90
56771;DHT22;42641;59.794;17.616;2022-10-15T00:27:30;11.90;99.90
56771;DHT22;42641;59.794;17.616;2022-10-15T00:29:57;12.00;99.90
56771;DHT22;42641;59.794;17.616;2022-10-15T00:32:26;12.00;99.90
56771;DHT22;42641;59.794;17.616;2022-10-15T00:34:53;12.00;99.90
56771;DHT22;42641;59.794;17.616;2022-10-15T00:37:19;12.00;99.90
56771;DHT22;42641;59.794;17.616;2022-10-15T00:39:46;12.00;99.90
56771;DHT22;42641;59.794;17.616;2022-10-15T00:42:13;12.00;99.90
56771;DHT22;42641;59.794;17.616;2022-10-15T00:44:52;12.00;99.90
56771;DHT22;42641;59.794;17.616;2022-10-15T00:50:08;11.90;99.90
56771;DHT22;42641;59.794;17.616;2022-10-15T00:55:21;12.00;99.90
56771;DHT22;42641;59.794;17.616;2022-10-15T00:57:50;12.00;99.90
56771;DHT22;42641;59.794;17.616;2022-10-15T01:00:17;12.00;99.90
56771;DHT22;42641;59.794;17.616;2022-10-15T01:02:44;12.00;99.90
56771;DHT22;42641;59.794;17.616;2022-10-15T01:05:12;11.90;99.90
56771;DHT22;42641;59.794;17.616;2022-10-15T01:07:39;11.80;99.90
56771;DHT22;42641;59.794;17.616;2022-10-15T01:10:08;11.80;99.90
56771;DHT22;42641;59.794;17.616;2022-10-15T01:13:13;11.70;99.90
56771;DHT22;42641;59.794;17.616;2022-10-15T01:15:54;11.70;99.90
56771;DHT22;42641;59.794;17.616;2022-10-15T01:18:31;11.70;99.90
56771;DHT22;42641;59.794;17.616;2022-10-15T01:21:22;11.60;99.90
56771;DHT22;42641;59.794;17.616;2022-10-15T01:27:19;11.60;99.90
56771;DHT22;42641;59.794;17.616;2022-10-15T01:32:24;11.60;99.90
56771;DHT22;42641;59.794;17.616;2022-10-15T01:34:59;11.60;99.90
56771;DHT22;42641;59.794;17.616;2022-10-15T01:40:41;11.50;99.90
56771;DHT22;42641;59.794;17.616;2022-10-15T01:43:18;11.40;99.90
56771;DHT22;42641;59.794;17.616;2022-10-15T01:46:11;11.40;99.90
56771;DHT22;42641;59.794;17.616;2022-10-15T01:48:54;11.30;99.90
56771;DHT22;42641;59.794;17.616;2022-10-15T01:51:23;11.30;99.90
56771;DHT22;42641;59.794;17.616;2022-10-15T01:53:58;11.20;99.90
56771;DHT22;42641;59.794;17.616;2022-10-15T01:56:26;11.20;99.90
56771;DHT22;42641;59.794;17.616;2022-10-15T01:58:54;11.10;99.90
56771;DHT22;42641;59.794;17.616;2022-10-15T02:01:22;11.00;99.90
56771;DHT22;42641;59.794;17.616;2022-10-15T02:03:50;11.00;99.90
56771;DHT22;42641;59.794;17.616;2022-10-15T02:06:33;11.00;99.90
56771;DHT22;42641;59.794;17.616;2022-10-15T02:09:18;11.00;99.90
56771;DHT22;42641;59.794;17.616;2022-10-15T02:14:49;11.00;99.90
56771;DHT22;42641;59.794;17.616;2022-10-15T02:17:23;11.00;99.90
56771;DHT22;42641;59.794;17.616;2022-10-15T02:22:40;11.10;99.90
56771;DHT22;42641;59.794;17.616;2022-10-15T02:25:14;11.10;99.90
56771;DHT22;42641;59.794;17.616;2022-10-15T02:27:43;11.10;99.90
56771;DHT22;42641;59.794;17.616;2022-10-15T02:30:11;11.00;99.90
56771;DHT22;42641;59.794;17.616;2022-10-15T02:32:40;11.00;99.90
56771;DHT22;42641;59.794;17.616;2022-10-15T02:35:08;10.90;99.90
56771;DHT22;42641;59.794;17.616;2022-10-15T02:37:43;10.80;99.90
56771;DHT22;42641;59.794;17.616;2022-10-15T02:40:11;10.80;99.90
56771;DHT22;42641;59.794;17.616;2022-10-15T02:42:38;10.70;99.90
56771;DHT22;42641;59.794;17.616;2022-10-15T02:45:07;10.70;99.90
56771;DHT22;42641;59.794;17.616;2022-10-15T02:47:34;10.70;99.90
56771;DHT22;42641;59.794;17.616;2022-10-15T02:50:03;10.70;99.90
56771;DHT22;42641;59.794;17.616;2022-10-15T02:52:29;10.70;99.90
56771;DHT22;42641;59.794;17.616;2022-10-15T02:54:55;10.70;99.90
56771;DHT22;42641;59.794;17.616;2022-10-15T02:57:22;10.70;99.90
56771;DHT22;42641;59.794;17.616;2022-10-15T02:59:49;10.70;99.90
56771;DHT22;42641;59.794;17.616;2022-10-15T03:02:16;10.70;99.90
56771;DHT22;42641;59.794;17.616;2022-10-15T03:04:42;10.70;99.90
56771;DHT22;42641;59.794;17.616;2022-10-15T03:07:09;10.80;99.90
56771;DHT22;42641;59.794;17.616;2022-10-15T03:09:35;10.80;99.90
56771;DHT22;42641;59.794;17.616;2022-10-15T03:12:04;10.70;99.90
56771;DHT22;42641;59.794;17.616;2022-10-15T03:14:31;10.70;99.90
56771;DHT22;42641;59.794;17.616;2022-10-15T03:16:59;10.70;99.90
56771;DHT22;42641;59.794;17.616;2022-10-15T03:19:27;10.70;99.90
56771;DHT22;42641;59.794;17.616;2022-10-15T03:21:54;10.70;99.90
56771;DHT22;42641;59.794;17.616;2022-10-15T03:24:20;10.70;99.90
56771;DHT22;42641;59.794;17.616;2022-10-15T03:26:46;10.60;99.90
56771;DHT22;42641;59.794;17.616;2022-10-15T03:29:13;10.70;99.90
56771;DHT22;42641;59.794;17.616;2022-10-15T03:32:05;10.70;99.90
56771;DHT22;42641;59.794;17.616;2022-10-15T03:34:32;10.70;99.90
56771;DHT22;42641;59.794;17.616;2022-10-15T03:36:59;10.70;99.90
56771;DHT22;42641;59.794;17.616;2022-10-15T03:39:25;10.60;99.90
56771;DHT22;42641;59.794;17.616;2022-10-15T03:41:56;10.60;99.90
56771;DHT22;42641;59.794;17.616;2022-10-15T03:44:29;10.60;99.90
56771;DHT22;42641;59.794;17.616;2022-10-15T03:47:06;10.60;99.90
56771;DHT22;42641;59.794;17.616;2022-10-15T03:49:41;10.60;99.90
56771;DHT22;42641;59.794;17.616;2022-10-15T03:52:08;10.60;99.90
56771;DHT22;42641;59.794;17.616;2022-10-15T03:54:35;10.60;99.90
56771;DHT22;42641;59.794;17.616;2022-10-15T03:57:02;10.60;99.90
56771;DHT22;42641;59.794;17.616;2022-10-15T03:59:33;10.60;99.90
56771;DHT22;42641;59.794;17.616;2022-10-15T04:02:01;10.70;99.90
56771;DHT22;42641;59.794;17.616;2022-10-15T04:04:29;10.60;99.90
56771;DHT22;42641;59.794;17.616;2022-10-15T04:06:55;10.70;99.90
56771;DHT22;42641;59.794;17.616;2022-10-15T04:09:23;10.70;99.90
56771;DHT22;42641;59.794;17.616;2022-10-15T04:11:49;10.80;99.90
56771;DHT22;42641;59.794;17.616;2022-10-15T04:14:17;10.80;99.90
56771;DHT22;42641;59.794;17.616;2022-10-15T04:16:45;10.90;99.90
56771;DHT22;42641;59.794;17.616;2022-10-15T04:19:17;10.90;99.90
56771;DHT22;42641;59.794;17.616;2022-10-15T04:21:50;10.90;99.90
56771;DHT22;42641;59.794;17.616;2022-10-15T04:24:29;11.00;99.90
56771;DHT22;42641;59.794;17.616;2022-10-15T04:26:55;11.00;99.90
56771;DHT22;42641;59.794;17.616;2022-10-15T04:29:21;11.00;99.90
56771;DHT22;42641;59.794;17.616;2022-10-15T04:31:49;11.00;99.90
56771;DHT22;42641;59.794;17.616;2022-10-15T04:34:16;11.10;99.90
56771;DHT22;42641;59.794;17.616;2022-10-15T04:36:42;11.10;99.90
56771;DHT22;42641;59.794;17.616;2022-10-15T04:39:15;11.10;99.90
56771;DHT22;42641;59.794;17.616;2022-10-15T04:41:43;11.10;99.90
56771;DHT22;42641;59.794;17.616;2022-10-15T04:44:12;11.10;99.90
56771;DHT22;42641;59.794;17.616;2022-10-15T04:46:39;11.10;99.90
56771;DHT22;42641;59.794;17.616;2022-10-15T04:49:26;11.10;99.90
56771;DHT22;42641;59.794;17.616;2022-10-15T04:51:52;11.10;99.90
56771;DHT22;42641;59.794;17.616;2022-10-15T04:54:27;11.10;99.90
56771;DHT22;42641;59.794;17.616;2022-10-15T04:57:04;11.00;99.90
56771;DHT22;42641;59.794;17.616;2022-10-15T04:59:31;11.00;99.90
56771;DHT22;42641;59.794;17.616;2022-10-15T05:02:16;10.90;99.90
56771;DHT22;42641;59.794;17.616;2022-10-15T05:04:45;10.90;99.90
56771;DHT22;42641;59.794;17.616;2022-10-15T05:07:12;10.90;99.90
56771;DHT22;42641;59.794;17.616;2022-10-15T05:09:40;11.00;99.90
56771;DHT22;42641;59.794;17.616;2022-10-15T05:12:06;11.00;99.90
56771;DHT22;42641;59.794;17.616;2022-10-15T05:14:34;10.90;99.90
56771;DHT22;42641;59.794;17.616;2022-10-15T05:17:16;11.00;99.90
56771;DHT22;42641;59.794;17.616;2022-10-15T05:19:44;11.00;99.90
56771;DHT22;42641;59.794;17.616;2022-10-15T05:22:17;11.10;99.90
56771;DHT22;42641;59.794;17.616;2022-10-15T05:24:50;11.00;99.90
56771;DHT22;42641;59.794;17.616;2022-10-15T05:27:29;11.00;99.90
56771;DHT22;42641;59.794;17.616;2022-10-15T05:29:56;11.10;99.90
56771;DHT22;42641;59.794;17.616;2022-10-15T05:32:29;11.10;99.90
56771;DHT22;42641;59.794;17.616;2022-10-15T05:34:56;11.10;99.90
56771;DHT22;42641;59.794;17.616;2022-10-15T05:37:29;11.10;99.90
56771;DHT22;42641;59.794;17.616;2022-10-15T05:39:55;11.10;99.90
56771;DHT22;42641;59.794;17.616;2022-10-15T05:42:22;11.10;99.90
56771;DHT22;42641;59.794;17.616;2022-10-15T05:44:54;11.10;99.90
56771;DHT22;42641;59.794;17.616;2022-10-15T05:47:20;11.20;99.90
56771;DHT22;42641;59.794;17.616;2022-10-15T05:49:47;11.20;99.90
56771;DHT22;42641;59.794;17.616;2022-10-15T05:52:23;11.20;99.90
56771;DHT22;42641;59.794;17.616;2022-10-15T05:55:05;11.20;99.90
56771;DHT22;42641;59.794;17.616;2022-10-15T05:57:31;11.20;99.90
56771;DHT22;42641;59.794;17.616;2022-10-15T06:00:00;11.20;99.90
56771;DHT22;42641;59.794;17.616;2022-10-15T06:02:29;11.30;99.90
56771;DHT22;42641;59.794;17.616;2022-10-15T06:04:56;11.30;99.90
56771;DHT22;42641;59.794;17.616;2022-10-15T06:07:22;11.30;99.90
56771;DHT22;42641;59.794;17.616;2022-10-15T06:09:48;11.30;99.90
56771;DHT22;42641;59.794;17.616;2022-10-15T06:12:16;11.30;99.90
56771;DHT22;42641;59.794;17.616;2022-10-15T06:14:43;11.20;99.90
56771;DHT22;42641;59.794;17.616;2022-10-15T06:17:09;11.30;99.90
56771;DHT22;42641;59.794;17.616;2022-10-15T06:19:35;11.30;99.90
56771;DHT22;42641;59.794;17.616;2022-10-15T06:22:02;11.30;99.90
56771;DHT22;42641;59.794;17.616;2022-10-15T06:24:29;11.40;99.90
56771;DHT22;42641;59.794;17.616;2022-10-15T06:26:57;11.40;99.90
56771;DHT22;42641;59.794;17.616;2022-10-15T06:29:23;11.50;99.90
56771;DHT22;42641;59.794;17.616;2022-10-15T06:31:52;11.60;99.90
56771;DHT22;42641;59.794;17.616;2022-10-15T06:34:19;11.60;99.90
56771;DHT22;42641;59.794;17.616;2022-10-15T06:36:45;11.60;99.90
56771;DHT22;42641;59.794;17.616;2022-10-15T06:39:12;11.70;99.90
56771;DHT22;42641;59.794;17.616;2022-10-15T06:41:40;11.70;99.90
56771;DHT22;42641;59.794;17.616;2022-10-15T06:44:07;11.70;99.90
56771;DHT22;42641;59.794;17.616;2022-10-15T06:46:33;11.70;99.90
56771;DHT22;42641;59.794;17.616;2022-10-15T06:48:59;11.70;99.90
56771;DHT22;42641;59.794;17.616;2022-10-15T06:51:26;11.80;99.90
56771;DHT22;42641;59.794;17.616;2022-10-15T06:53:52;11.80;99.90
56771;DHT22;42641;59.794;17.616;2022-10-15T06:56:19;11.90;99.90
56771;DHT22;42641;59.794;17.616;2022-10-15T06:58:45;11.90;99.90
56771;DHT22;42641;59.794;17.616;2022-10-15T07:01:12;12.00;99.90
56771;DHT22;42641;59.794;17.616;2022-10-15T07:03:38;12.00;99.90
56771;DHT22;42641;59.794;17.616;2022-10-15T07:06:07;12.10;99.90
56771;DHT22;42641;59.794;17.616;2022-10-15T07:08:34;12.10;99.90
56771;DHT22;42641;59.794;17.616;2022-10-15T07:11:04;12.20;99.90
56771;DHT22;42641;59.794;17.616;2022-10-15T07:13:31;12.20;99.90
56771;DHT22;42641;59.794;17.616;2022-10-15T07:16:10;12.20;99.90
56771;DHT22;42641;59.794;17.616;2022-10-15T07:18:38;12.30;99.90
56771;DHT22;42641;59.794;17.616;2022-10-15T07:21:05;12.30;99.90
56771;DHT22;42641;59.794;17.616;2022-10-15T07:23:32;12.30;99.90
56771;DHT22;42641;59.794;17.616;2022-10-15T07:25:59;12.30;99.90
56771;DHT22;42641;59.794;17.616;2022-10-15T07:28:26;12.30;99.90
56771;DHT22;42641;59.794;17.616;2022-10-15T07:30:52;12.30;99.90
56771;DHT22;42641;59.794;17.616;2022-10-15T07:33:18;12.40;99.90
56771;DHT22;42641;59.794;17.616;2022-10-15T07:35:57;12.40;99.90
56771;DHT22;42641;59.794;17.616;2022-10-15T07:38:24;12.40;99.90
56771;DHT22;42641;59.794;17.616;2022-10-15T07:40:50;12.50;99.90
56771;DHT22;42641;59.794;17.616;2022-10-15T07:43:16;12.60;99.90
56771;DHT22;42641;59.794;17.616;2022-10-15T07:45:46;12.70;99.90
56771;DHT22;42641;59.794;17.616;2022-10-15T07:48:14;12.80;99.90
56771;DHT22;42641;59.794;17.616;2022-10-15T07:50:41;12.80;99.90
56771;DHT22;42641;59.794;17.616;2022-10-15T07:53:08;12.90;99.90
56771;DHT22;42641;59.794;17.616;2022-10-15T07:55:34;12.90;99.90
56771;DHT22;42641;59.794;17.616;2022-10-15T07:58:01;12.90;99.90
56771;DHT22;42641;59.794;17.616;2022-10-15T08:00:27;12.90;99.90
56771;DHT22;42641;59.794;17.616;2022-10-15T08:02:53;12.90;99.90
56771;DHT22;42641;59.794;17.616;2022-10-15T08:05:20;13.00;99.90
56771;DHT22;42641;59.794;17.616;2022-10-15T08:07:46;13.20;99.90
56771;DHT22;42641;59.794;17.616;2022-10-15T08:10:13;13.30;99.90
56771;DHT22;42641;59.794;17.616;2022-10-15T08:12:40;13.30;99.90
56771;DHT22;42641;59.794;17.616;2022-10-15T08:15:07;13.30;99.90
56771;DHT22;42641;59.794;17.616;2022-10-15T08:17:34;13.30;99.90
56771;DHT22;42641;59.794;17.616;2022-10-15T08:20:00;13.30;99.90
56771;DHT22;42641;59.794;17.616;2022-10-15T08:22:27;13.40;99.90
56771;DHT22;42641;59.794;17.616;2022-10-15T08:24:55;13.40;99.90
56771;DHT22;42641;59.794;17.616;2022-10-15T08:27:21;13.50;99.90
56771;DHT22;42641;59.794;17.616;2022-10-15T08:29:48;13.40;99.90
56771;DHT22;42641;59.794;17.616;2022-10-15T08:32:14;13.50;99.90
56771;DHT22;42641;59.794;17.616;2022-10-15T08:34:40;13.50;99.90
56771;DHT22;42641;59.794;17.616;2022-10-15T08:37:07;13.50;99.90
56771;DHT22;42641;59.794;17.616;2022-10-15T08:39:34;13.40;99.90
56771;DHT22;42641;59.794;17.616;2022-10-15T08:42:05;13.50;99.90
56771;DHT22;42641;59.794;17.616;2022-10-15T08:44:45;13.40;99.90
56771;DHT22;42641;59.794;17.616;2022-10-15T08:47:35;13.50;99.90
56771;DHT22;42641;59.794;17.616;2022-10-15T08:52:43;13.60;99.90
56771;DHT22;42641;59.794;17.616;2022-10-15T08:55:12;13.70;99.90
56771;DHT22;42641;59.794;17.616;2022-10-15T08:57:43;13.70;99.90
56771;DHT22;42641;59.794;17.616;2022-10-15T09:00:30;13.80;99.90
56771;DHT22;42641;59.794;17.616;2022-10-15T09:06:27;14.10;99.90
56771;DHT22;42641;59.794;17.616;2022-10-15T09:12:15;14.20;99.90
56771;DHT22;42641;59.794;17.616;2022-10-15T09:14:45;14.10;99.90
56771;DHT22;42641;59.794;17.616;2022-10-15T09:17:21;14.10;99.90
56771;DHT22;42641;59.794;17.616;2022-10-15T09:19:57;14.10;99.90
56771;DHT22;42641;59.794;17.616;2022-10-15T09:22:26;14.20;99.90
56771;DHT22;42641;59.794;17.616;2022-10-15T09:24:54;14.30;99.90
56771;DHT22;42641;59.794;17.616;2022-10-15T09:27:29;14.30;99.90
56771;DHT22;42641;59.794;17.616;2022-10-15T09:36:05;14.30;99.90
56771;DHT22;42641;59.794;17.616;2022-10-15T09:43:51;14.60;99.90
56771;DHT22;42641;59.794;17.616;2022-10-15T09:46:21;14.50;99.90
56771;DHT22;42641;59.794;17.616;2022-10-15T09:51:52;14.50;99.90
56771;DHT22;42641;59.794;17.616;2022-10-15T09:57:32;14.80;99.90
56771;DHT22;42641;59.794;17.616;2022-10-15T10:00:02;14.90;99.90
56771;DHT22;42641;59.794;17.616;2022-10-15T10:02:38;15.00;99.90
56771;DHT22;42641;59.794;17.616;2022-10-15T10:05:23;15.00;99.90
56771;DHT22;42641;59.794;17.616;2022-10-15T10:08:07;15.10;99.90
56771;DHT22;42641;59.794;17.616;2022-10-15T10:10:35;15.10;99.90
56771;DHT22;42641;59.794;17.616;2022-10-15T10:13:06;15.10;99.90
56771;DHT22;42641;59.794;17.616;2022-10-15T10:15:36;15.00;99.90
56771;DHT22;42641;59.794;17.616;2022-10-15T10:18:04;14.90;99.90
56771;DHT22;42641;59.794;17.616;2022-10-15T10:20:32;14.90;99.90
56771;DHT22;42641;59.794;17.616;2022-10-15T10:23:02;14.90;99.90
56771;DHT22;42641;59.794;17.616;2022-10-15T10:25:42;14.90;99.90
56771;DHT22;42641;59.794;17.616;2022-10-15T10:36:17;15.20;99.90
56771;DHT22;42641;59.794;17.616;2022-10-15T10:38:59;15.10;99.90
56771;DHT22;42641;59.794;17.616;2022-10-15T10:41:50;15.00;99.90
56771;DHT22;42641;59.794;17.616;2022-10-15T10:44:38;15.00;99.90
56771;DHT22;42641;59.794;17.616;2022-10-15T10:47:20;14.90;99.90
56771;DHT22;42641;59.794;17.616;2022-10-15T10:49:52;14.80;99.90
56771;DHT22;42641;59.794;17.616;2022-10-15T10:55:00;14.80;99.90
56771;DHT22;42641;59.794;17.616;2022-10-15T10:57:41;14.90;99.90
56771;DHT22;42641;59.794;17.616;2022-10-15T11:00:14;14.80;99.90
56771;DHT22;42641;59.794;17.616;2022-10-15T11:02:47;14.80;99.90
56771;DHT22;42641;59.794;17.616;2022-10-15T11:05:18;14.80;99.90
56771;DHT22;42641;59.794;17.616;2022-10-15T11:10:36;14.70;99.90
56771;DHT22;42641;59.794;17.616;2022-10-15T11:13:26;14.70;99.90
56771;DHT22;42641;59.794;17.616;2022-10-15T11:15:57;14.70;99.90
56771;DHT22;42641;59.794;17.616;2022-10-15T11:31:28;14.70;99.90
56771;DHT22;42641;59.794;17.616;2022-10-15T11:34:04;14.70;99.90
56771;DHT22;42641;59.794;17.616;2022-10-15T11:47:43;14.60;99.90
56771;DHT22;42641;59.794;17.616;2022-10-15T11:50:26;14.60;99.90
56771;DHT22;42641;59.794;17.616;2022-10-15T11:55:41;14.60;99.90
56771;DHT22;42641;59.794;17.616;2022-10-15T11:58:43;14.50;99.90
56771;DHT22;42641;59.794;17.616;2022-10-15T12:01:18;14.60;99.90
56771;DHT22;42641;59.794;17.616;2022-10-15T12:03:55;14.60;99.90
56771;DHT22;42641;59.794;17.616;2022-10-15T12:06:35;14.60;99.90
56771;DHT22;42641;59.794;17.616;2022-10-15T12:09:03;14.50;99.90
56771;DHT22;42641;59.794;17.616;2022-10-15T12:17:31;14.40;99.90
56771;DHT22;42641;59.794;17.616;2022-10-15T12:20:13;14.30;99.90
56771;DHT22;42641;59.794;17.616;2022-10-15T12:22:54;14.30;99.90
56771;DHT22;42641;59.794;17.616;2022-10-15T12:28:15;14.20;99.90
56771;DHT22;42641;59.794;17.616;2022-10-15T12:31:01;14.20;99.90
56771;DHT22;42641;59.794;17.616;2022-10-15T12:33:58;14.20;99.90
56771;DHT22;42641;59.794;17.616;2022-10-15T12:36:26;14.20;99.90
56771;DHT22;42641;59.794;17.616;2022-10-15T12:39:04;14.10;99.90
56771;DHT22;42641;59.794;17.616;2022-10-15T12:41:39;14.10;99.90
56771;DHT22;42641;59.794;17.616;2022-10-15T12:44:23;14.10;99.90
56771;DHT22;42641;59.794;17.616;2022-10-15T12:46:51;14.00;99.90
56771;DHT22;42641;59.794;17.616;2022-10-15T12:55:37;13.90;99.90
56771;DHT22;42641;59.794;17.616;2022-10-15T12:58:42;13.90;99.90
56771;DHT22;42641;59.794;17.616;2022-10-15T13:09:27;13.90;99.90
56771;DHT22;42641;59.794;17.616;2022-10-15T13:11:57;14.00;99.90
56771;DHT22;42641;59.794;17.616;2022-10-15T13:14:28;14.00;99.90
56771;DHT22;42641;59.794;17.616;2022-10-15T13:17:00;14.10;99.90
56771;DHT22;42641;59.794;17.616;2022-10-15T13:19:37;14.00;99.90
56771;DHT22;42641;59.794;17.616;2022-10-15T13:22:06;14.00;99.90
56771;DHT22;42641;59.794;17.616;2022-10-15T13:24:44;14.10;99.90
56771;DHT22;42641;59.794;17.616;2022-10-15T13:27:21;14.20;99.90
56771;DHT22;42641;59.794;17.616;2022-10-15T13:29:55;14.20;99.90
56771;DHT22;42641;59.794;17.616;2022-10-15T13:32:22;14.10;99.90
56771;DHT22;42641;59.794;17.616;2022-10-15T13:34:50;14.10;99.90
56771;DHT22;42641;59.794;17.616;2022-10-15T13:37:40;14.00;99.90
56771;DHT22;42641;59.794;17.616;2022-10-15T13:40:05;14.00;99.90
56771;DHT22;42641;59.794;17.616;2022-10-15T13:42:33;14.00;99.90
56771;DHT22;42641;59.794;17.616;2022-10-15T13:45:15;14.00;99.90
56771;DHT22;42641;59.794;17.616;2022-10-15T13:47:51;14.00;99.90
56771;DHT22;42641;59.794;17.616;2022-10-15T13:50:26;14.00;99.90
56771;DHT22;42641;59.794;17.616;2022-10-15T13:53:00;14.00;99.90
56771;DHT22;42641;59.794;17.616;2022-10-15T13:55:31;14.00;99.90
56771;DHT22;42641;59.794;17.616;2022-10-15T13:58:26;13.90;99.90
56771;DHT22;42641;59.794;17.616;2022-10-15T14:01:01;13.90;99.90
56771;DHT22;42641;59.794;17.616;2022-10-15T14:03:31;13.90;99.90
56771;DHT22;42641;59.794;17.616;2022-10-15T14:06:10;13.80;99.90
56771;DHT22;42641;59.794;17.616;2022-10-15T14:08:40;13.90;99.90
56771;DHT22;42641;59.794;17.616;2022-10-15T14:11:11;13.90;99.90
56771;DHT22;42641;59.794;17.616;2022-10-15T14:13:46;13.90;99.90
56771;DHT22;42641;59.794;17.616;2022-10-15T14:16:19;13.90;99.90
56771;DHT22;42641;59.794;17.616;2022-10-15T14:19:17;13.90;99.90
56771;DHT22;42641;59.794;17.616;2022-10-15T14:21:43;13.90;99.90
56771;DHT22;42641;59.794;17.616;2022-10-15T14:24:16;14.00;99.90
56771;DHT22;42641;59.794;17.616;2022-10-15T14:26:44;13.90;99.90
56771;DHT22;42641;59.794;17.616;2022-10-15T14:29:23;13.90;99.90
56771;DHT22;42641;59.794;17.616;2022-10-15T14:31:50;14.00;99.90
56771;DHT22;42641;59.794;17.616;2022-10-15T14:37:01;14.00;99.90
56771;DHT22;42641;59.794;17.616;2022-10-15T14:39:33;14.00;99.90
56771;DHT22;42641;59.794;17.616;2022-10-15T14:42:02;14.00;99.90
56771;DHT22;42641;59.794;17.616;2022-10-15T14:44:46;14.00;99.90
56771;DHT22;42641;59.794;17.616;2022-10-15T14:47:21;14.00;99.90
56771;DHT22;42641;59.794;17.616;2022-10-15T14:49:52;14.00;99.90
56771;DHT22;42641;59.794;17.616;2022-10-15T14:52:20;14.00;99.90
56771;DHT22;42641;59.794;17.616;2022-10-15T14:57:33;14.00;99.90
56771;DHT22;42641;59.794;17.616;2022-10-15T15:00:03;14.00;99.90
56771;DHT22;42641;59.794;17.616;2022-10-15T15:02:30;14.00;99.90
56771;DHT22;42641;59.794;17.616;2022-10-15T15:07:39;14.00;99.90
56771;DHT22;42641;59.794;17.616;2022-10-15T15:10:07;14.00;99.90
56771;DHT22;42641;59.794;17.616;2022-10-15T15:12:34;14.00;99.90
56771;DHT22;42641;59.794;17.616;2022-10-15T15:15:01;14.00;99.90
56771;DHT22;42641;59.794;17.616;2022-10-15T15:17:29;14.00;99.90
56771;DHT22;42641;59.794;17.616;2022-10-15T15:19:56;14.00;99.90
56771;DHT22;42641;59.794;17.616;2022-10-15T15:22:33;14.00;99.90
56771;DHT22;42641;59.794;17.616;2022-10-15T15:25:05;14.00;99.90
56771;DHT22;42641;59.794;17.616;2022-10-15T15:27:32;14.00;99.90
56771;DHT22;42641;59.794;17.616;2022-10-15T15:30:11;14.00;99.90
56771;DHT22;42641;59.794;17.616;2022-10-15T15:32:38;14.00;99.90
56771;DHT22;42641;59.794;17.616;2022-10-15T15:35:18;13.90;99.90
56771;DHT22;42641;59.794;17.616;2022-10-15T15:37:45;14.00;99.90
56771;DHT22;42641;59.794;17.616;2022-10-15T15:40:11;13.90;99.90
56771;DHT22;42641;59.794;17.616;2022-10-15T15:42:38;13.90;99.90
56771;DHT22;42641;59.794;17.616;2022-10-15T15:45:05;13.90;99.90
56771;DHT22;42641;59.794;17.616;2022-10-15T15:47:31;13.90;99.90
56771;DHT22;42641;59.794;17.616;2022-10-15T15:49:57;13.90;99.90
56771;DHT22;42641;59.794;17.616;2022-10-15T15:52:24;13.90;99.90
56771;DHT22;42641;59.794;17.616;2022-10-15T15:54:50;13.90;99.90
56771;DHT22;42641;59.794;17.616;2022-10-15T15:57:17;13.90;99.90
56771;DHT22;42641;59.794;17.616;2022-10-15T15:59:43;13.90;99.90
56771;DHT22;42641;59.794;17.616;2022-10-15T16:02:10;13.90;99.90
56771;DHT22;42641;59.794;17.616;2022-10-15T16:04:37;13.90;99.90
56771;DHT22;42641;59.794;17.616;2022-10-15T16:07:03;13.90;99.90
56771;DHT22;42641;59.794;17.616;2022-10-15T16:09:29;13.90;99.90
56771;DHT22;42641;59.794;17.616;2022-10-15T16:11:56;13.90;99.90
56771;DHT22;42641;59.794;17.616;2022-10-15T16:14:22;13.90;99.90
56771;DHT22;42641;59.794;17.616;2022-10-15T16:16:48;13.80;99.90
56771;DHT22;42641;59.794;17.616;2022-10-15T16:19:15;13.90;99.90
56771;DHT22;42641;59.794;17.616;2022-10-15T16:21:41;13.80;99.90
56771;DHT22;42641;59.794;17.616;2022-10-15T16:24:07;13.80;99.90
56771;DHT22;42641;59.794;17.616;2022-10-15T16:26:34;13.80;99.90
56771;DHT22;42641;59.794;17.616;2022-10-15T16:29:00;13.80;99.90
56771;DHT22;42641;59.794;17.616;2022-10-15T16:31:27;13.80;99.90
56771;DHT22;42641;59.794;17.616;2022-10-15T16:33:58;13.80;99.90
56771;DHT22;42641;59.794;17.616;2022-10-15T16:36:24;13.80;99.90
56771;DHT22;42641;59.794;17.616;2022-10-15T16:38:51;13.80;99.90
56771;DHT22;42641;59.794;17.616;2022-10-15T16:41:17;13.80;99.90
56771;DHT22;42641;59.794;17.616;2022-10-15T16:43:45;13.80;99.90
56771;DHT22;42641;59.794;17.616;2022-10-15T16:46:13;13.80;99.90
56771;DHT22;42641;59.794;17.616;2022-10-15T16:48:41;13.70;99.90
56771;DHT22;42641;59.794;17.616;2022-10-15T16:51:13;13.70;99.90
56771;DHT22;42641;59.794;17.616;2022-10-15T16:53:42;13.70;99.90
56771;DHT22;42641;59.794;17.616;2022-10-15T16:56:15;13.80;99.90
56771;DHT22;42641;59.794;17.616;2022-10-15T16:58:42;13.70;99.90
56771;DHT22;42641;59.794;17.616;2022-10-15T17:01:14;13.70;99.90
56771;DHT22;42641;59.794;17.616;2022-10-15T17:03:41;13.70;99.90
56771;DHT22;42641;59.794;17.616;2022-10-15T17:06:13;13.70;99.90
56771;DHT22;42641;59.794;17.616;2022-10-15T17:11:28;13.70;99.90
56771;DHT22;42641;59.794;17.616;2022-10-15T17:13:57;13.70;99.90
56771;DHT22;42641;59.794;17.616;2022-10-15T17:16:32;13.70;99.90
56771;DHT22;42641;59.794;17.616;2022-10-15T17:18:58;13.70;99.90
56771;DHT22;42641;59.794;17.616;2022-10-15T17:21:26;13.70;99.90
56771;DHT22;42641;59.794;17.616;2022-10-15T17:23:55;13.70;99.90
56771;DHT22;42641;59.794;17.616;2022-10-15T17:26:24;13.80;99.90
56771;DHT22;42641;59.794;17.616;2022-10-15T17:28:52;13.70;99.90
56771;DHT22;42641;59.794;17.616;2022-10-15T17:31:20;13.80;99.90
56771;DHT22;42641;59.794;17.616;2022-10-15T17:33:47;13.80;99.90
56771;DHT22;42641;59.794;17.616;2022-10-15T17:36:16;13.80;99.90
56771;DHT22;42641;59.794;17.616;2022-10-15T17:38:44;13.80;99.90